FHA19D LDDU-LIEO
Flight info
| Callsign | FHA19D |
|---|---|
| Flight time | 1h 42m |
| Altitude | 35000 |
| Route | AMUGO1W AMUGO DCT KATTI DCT ESODU DCT ABIDU Z924 GITRI GITRI2R |
| Aircraft | A320/M-SDE3FGHIRWY/LB1 |
Departure
| Time | 2026-04-28 17:28 |
|---|---|
| Airport | Dubrovnik Ruđer Bošković Airport (LDDU) |
Arrival
| Time | 2026-04-28 19:11 |
|---|---|
| Airport | Olbia Costa Smeralda Airport (LIEO) |
| Time | Latitude | Longitude | Altitude | Speed | Heading |
|---|---|---|---|---|---|
| 2026-04-28 16:49 | 42.56106 | 18.26246 | 534 ft | 0 kts | 208° |
| 2026-04-28 17:21 | 42.56127 | 18.26262 | 534 ft | 4 kts | 208° |
| 2026-04-28 17:21 | 42.56147 | 18.26283 | 534 ft | 4 kts | 241° |
| 2026-04-28 17:21 | 42.56152 | 18.26314 | 534 ft | 4 kts | 291° |
| 2026-04-28 17:22 | 42.56148 | 18.26327 | 534 ft | 0 kts | 296° |
| 2026-04-28 17:23 | 42.56148 | 18.26326 | 534 ft | 1 kts | 296° |
| 2026-04-28 17:24 | 42.56154 | 18.26308 | 534 ft | 4 kts | 297° |
| 2026-04-28 17:24 | 42.56175 | 18.26254 | 534 ft | 9 kts | 297° |
| 2026-04-28 17:24 | 42.56213 | 18.26157 | 534 ft | 14 kts | 298° |
| 2026-04-28 17:24 | 42.56269 | 18.26019 | 534 ft | 19 kts | 298° |
| 2026-04-28 17:25 | 42.56337 | 18.25847 | 534 ft | 22 kts | 298° |
| 2026-04-28 17:25 | 42.56499 | 18.25441 | 534 ft | 26 kts | 298° |
| 2026-04-28 17:25 | 42.56586 | 18.25223 | 534 ft | 27 kts | 298° |
| 2026-04-28 17:26 | 42.56676 | 18.24995 | 533 ft | 28 kts | 298° |
| 2026-04-28 17:26 | 42.56763 | 18.24774 | 534 ft | 20 kts | 298° |
| 2026-04-28 17:26 | 42.56841 | 18.24674 | 533 ft | 16 kts | 351° |
| 2026-04-28 17:26 | 42.56932 | 18.24753 | 533 ft | 17 kts | 71° |
| 2026-04-28 17:27 | 42.56914 | 18.24864 | 533 ft | 11 kts | 119° |
| 2026-04-28 17:27 | 42.56797 | 18.25157 | 531 ft | 68 kts | 118° |
| 2026-04-28 17:27 | 42.56476 | 18.25971 | 535 ft | 124 kts | 118° |
| 2026-04-28 17:27 | 42.55994 | 18.27186 | 535 ft | 166 kts | 118° |
| 2026-04-28 17:28 | 42.55435 | 18.28611 | 1005 ft | 170 kts | 118° |
| 2026-04-28 17:28 | 42.54318 | 18.31440 | 2238 ft | 172 kts | 119° |
| 2026-04-28 17:28 | 42.53708 | 18.32915 | 2517 ft | 190 kts | 128° |
| 2026-04-28 17:29 | 42.52572 | 18.33883 | 2718 ft | 205 kts | 173° |
| 2026-04-28 17:29 | 42.51181 | 18.33423 | 3076 ft | 214 kts | 218° |
| 2026-04-28 17:29 | 42.50149 | 18.31943 | 3701 ft | 217 kts | 226° |
| 2026-04-28 17:30 | 42.47353 | 18.30428 | 5102 ft | 223 kts | 195° |
| 2026-04-28 17:30 | 42.44321 | 18.29478 | 6476 ft | 227 kts | 194° |
| 2026-04-28 17:30 | 42.42821 | 18.28675 | 6855 ft | 243 kts | 217° |
| 2026-04-28 17:31 | 42.41727 | 18.26833 | 7173 ft | 265 kts | 249° |
| 2026-04-28 17:31 | 42.41632 | 18.21709 | 8506 ft | 280 kts | 274° |
| 2026-04-28 17:32 | 42.41923 | 18.16363 | 10024 ft | 289 kts | 274° |
| 2026-04-28 17:32 | 42.42077 | 18.13563 | 10329 ft | 309 kts | 274° |
| 2026-04-28 17:32 | 42.42237 | 18.10554 | 10486 ft | 332 kts | 274° |
| 2026-04-28 17:32 | 42.42401 | 18.07374 | 10725 ft | 349 kts | 274° |
| 2026-04-28 17:33 | 42.42567 | 18.04051 | 11273 ft | 355 kts | 274° |
| 2026-04-28 17:33 | 42.42734 | 18.00690 | 11907 ft | 358 kts | 274° |
| 2026-04-28 17:33 | 42.42900 | 17.97349 | 12556 ft | 361 kts | 274° |
| 2026-04-28 17:33 | 42.42957 | 17.96197 | 12782 ft | 362 kts | 274° |
| 2026-04-28 17:34 | 42.43237 | 17.90531 | 13878 ft | 366 kts | 274° |
| 2026-04-28 17:34 | 42.43404 | 17.87083 | 14449 ft | 368 kts | 274° |
| 2026-04-28 17:34 | 42.43570 | 17.83592 | 15019 ft | 370 kts | 274° |
| 2026-04-28 17:34 | 42.43737 | 17.80142 | 15567 ft | 372 kts | 274° |
| 2026-04-28 17:35 | 42.43909 | 17.76616 | 16115 ft | 375 kts | 274° |
| 2026-04-28 17:35 | 42.44080 | 17.73086 | 16673 ft | 377 kts | 274° |
| 2026-04-28 17:35 | 42.44248 | 17.69531 | 17239 ft | 379 kts | 274° |
| 2026-04-28 17:35 | 42.44412 | 17.65948 | 17800 ft | 381 kts | 274° |
| 2026-04-28 17:36 | 42.44574 | 17.62394 | 18351 ft | 384 kts | 274° |
| 2026-04-28 17:36 | 42.44739 | 17.58773 | 18848 ft | 386 kts | 274° |
| 2026-04-28 17:36 | 42.44905 | 17.55124 | 19349 ft | 388 kts | 274° |
| 2026-04-28 17:36 | 42.45071 | 17.51460 | 19853 ft | 390 kts | 274° |
| 2026-04-28 17:37 | 42.45235 | 17.47795 | 20344 ft | 393 kts | 274° |
| 2026-04-28 17:37 | 42.45401 | 17.44089 | 20817 ft | 395 kts | 274° |
| 2026-04-28 17:37 | 42.45569 | 17.40357 | 21275 ft | 397 kts | 274° |
| 2026-04-28 17:37 | 42.45734 | 17.36663 | 21709 ft | 399 kts | 274° |
| 2026-04-28 17:38 | 42.45901 | 17.32883 | 22140 ft | 402 kts | 274° |
| 2026-04-28 17:38 | 42.46068 | 17.29087 | 22572 ft | 404 kts | 274° |
| 2026-04-28 17:38 | 42.46233 | 17.25276 | 22999 ft | 406 kts | 274° |
| 2026-04-28 17:38 | 42.46399 | 17.21445 | 23423 ft | 408 kts | 274° |
| 2026-04-28 17:39 | 42.46565 | 17.17592 | 23799 ft | 411 kts | 274° |
| 2026-04-28 17:39 | 42.46727 | 17.13760 | 24142 ft | 412 kts | 274° |
| 2026-04-28 17:39 | 42.47049 | 17.05958 | 24834 ft | 416 kts | 274° |
| 2026-04-28 17:40 | 42.47209 | 17.02039 | 25162 ft | 418 kts | 274° |
| 2026-04-28 17:40 | 42.47371 | 16.98099 | 25494 ft | 420 kts | 274° |
| 2026-04-28 17:40 | 42.47531 | 16.94140 | 25839 ft | 421 kts | 274° |
| 2026-04-28 17:40 | 42.47689 | 16.90215 | 26178 ft | 423 kts | 274° |
| 2026-04-28 17:41 | 42.47846 | 16.86224 | 26529 ft | 425 kts | 274° |
| 2026-04-28 17:41 | 42.48000 | 16.82219 | 26862 ft | 427 kts | 274° |
| 2026-04-28 17:41 | 42.48156 | 16.78202 | 27239 ft | 427 kts | 274° |
| 2026-04-28 17:41 | 42.48314 | 16.74173 | 27730 ft | 425 kts | 274° |
| 2026-04-28 17:42 | 42.48469 | 16.70212 | 28222 ft | 423 kts | 274° |
| 2026-04-28 17:42 | 42.48572 | 16.67567 | 28537 ft | 423 kts | 274° |
| 2026-04-28 17:42 | 42.48777 | 16.62237 | 29126 ft | 422 kts | 274° |
| 2026-04-28 17:42 | 42.48924 | 16.58305 | 29574 ft | 421 kts | 274° |
| 2026-04-28 17:43 | 42.49069 | 16.54327 | 30059 ft | 420 kts | 274° |
| 2026-04-28 17:43 | 42.49165 | 16.51712 | 30343 ft | 419 kts | 274° |
| 2026-04-28 17:43 | 42.49354 | 16.46485 | 30904 ft | 417 kts | 274° |
| 2026-04-28 17:43 | 42.49494 | 16.42556 | 31329 ft | 415 kts | 274° |
| 2026-04-28 17:44 | 42.49585 | 16.39965 | 31615 ft | 414 kts | 274° |
| 2026-04-28 17:44 | 42.49765 | 16.34786 | 32184 ft | 412 kts | 275° |
| 2026-04-28 17:44 | 42.49854 | 16.32215 | 32473 ft | 411 kts | 274° |
| 2026-04-28 17:44 | 42.49989 | 16.28344 | 32905 ft | 409 kts | 275° |
| 2026-04-28 17:45 | 42.50124 | 16.24480 | 33345 ft | 408 kts | 274° |
| 2026-04-28 17:45 | 42.50255 | 16.20639 | 33785 ft | 406 kts | 274° |
| 2026-04-28 17:45 | 42.50381 | 16.16879 | 34188 ft | 404 kts | 274° |
| 2026-04-28 17:45 | 42.50509 | 16.13050 | 34539 ft | 403 kts | 274° |
| 2026-04-28 17:46 | 42.50633 | 16.09255 | 34868 ft | 402 kts | 274° |
| 2026-04-28 17:46 | 42.50754 | 16.05510 | 35180 ft | 401 kts | 274° |
| 2026-04-28 17:46 | 42.50788 | 16.01712 | 35495 ft | 401 kts | 271° |
| 2026-04-28 17:46 | 42.50710 | 15.97922 | 35778 ft | 401 kts | 269° |
| 2026-04-28 17:47 | 42.50569 | 15.94190 | 36036 ft | 401 kts | 269° |
| 2026-04-28 17:47 | 42.50402 | 15.90409 | 36303 ft | 401 kts | 269° |
| 2026-04-28 17:47 | 42.50239 | 15.86644 | 36568 ft | 401 kts | 269° |
| 2026-04-28 17:47 | 42.50138 | 15.84144 | 36749 ft | 400 kts | 269° |
| 2026-04-28 17:48 | 42.49951 | 15.79095 | 37014 ft | 400 kts | 269° |
| 2026-04-28 17:48 | 42.49703 | 15.71454 | 37040 ft | 409 kts | 270° |
| 2026-04-28 17:49 | 42.49459 | 15.63738 | 37029 ft | 412 kts | 269° |
| 2026-04-28 17:49 | 42.49194 | 15.55966 | 37038 ft | 413 kts | 269° |
| 2026-04-28 17:50 | 42.48923 | 15.48230 | 37034 ft | 413 kts | 269° |
| 2026-04-28 17:50 | 42.48643 | 15.40437 | 37037 ft | 413 kts | 269° |
| 2026-04-28 17:51 | 42.48358 | 15.32689 | 37037 ft | 413 kts | 269° |
| 2026-04-28 17:51 | 42.48075 | 15.24927 | 37031 ft | 413 kts | 269° |
| 2026-04-28 17:52 | 42.47788 | 15.17113 | 37030 ft | 414 kts | 269° |
| 2026-04-28 17:52 | 42.47332 | 15.05420 | 37033 ft | 414 kts | 269° |
| 2026-04-28 17:53 | 42.47027 | 14.97668 | 37034 ft | 414 kts | 269° |
| 2026-04-28 17:53 | 42.46719 | 14.89908 | 37031 ft | 414 kts | 269° |
| 2026-04-28 17:54 | 42.46397 | 14.82087 | 37026 ft | 414 kts | 268° |
| 2026-04-28 17:54 | 42.46075 | 14.74320 | 37019 ft | 415 kts | 268° |
| 2026-04-28 17:55 | 42.45750 | 14.66508 | 37020 ft | 415 kts | 268° |
| 2026-04-28 17:55 | 42.45410 | 14.58689 | 37032 ft | 415 kts | 268° |
| 2026-04-28 17:56 | 42.45070 | 14.50871 | 37041 ft | 416 kts | 268° |
| 2026-04-28 17:56 | 42.44723 | 14.43047 | 37051 ft | 416 kts | 268° |
| 2026-04-28 17:57 | 42.44296 | 14.35290 | 37052 ft | 417 kts | 262° |
| 2026-04-28 17:57 | 42.42462 | 14.27826 | 37054 ft | 422 kts | 248° |
| 2026-04-28 17:58 | 42.39979 | 14.20635 | 37053 ft | 422 kts | 248° |
| 2026-04-28 17:58 | 42.37503 | 14.13426 | 37055 ft | 422 kts | 248° |
| 2026-04-28 17:59 | 42.35027 | 14.06220 | 37019 ft | 422 kts | 248° |
| 2026-04-28 17:59 | 42.32556 | 13.99057 | 37025 ft | 422 kts | 248° |
| 2026-04-28 18:00 | 42.30065 | 13.91866 | 37030 ft | 423 kts | 248° |
| 2026-04-28 18:00 | 42.27559 | 13.84664 | 37049 ft | 423 kts | 248° |
| 2026-04-28 18:01 | 42.25062 | 13.77504 | 37054 ft | 423 kts | 247° |
| 2026-04-28 18:01 | 42.22551 | 13.70303 | 37051 ft | 423 kts | 248° |
| 2026-04-28 18:02 | 42.20047 | 13.63166 | 37038 ft | 423 kts | 247° |
| 2026-04-28 18:02 | 42.17521 | 13.55984 | 37046 ft | 423 kts | 247° |
| 2026-04-28 18:03 | 42.15013 | 13.48859 | 37056 ft | 423 kts | 247° |
| 2026-04-28 18:03 | 42.12485 | 13.41671 | 37056 ft | 423 kts | 247° |
| 2026-04-28 18:04 | 42.09967 | 13.34559 | 37063 ft | 422 kts | 247° |
| 2026-04-28 18:04 | 42.07428 | 13.27431 | 37063 ft | 423 kts | 247° |
| 2026-04-28 18:05 | 42.05309 | 13.21466 | 37061 ft | 422 kts | 247° |
| 2026-04-28 18:05 | 42.02353 | 13.13155 | 37052 ft | 423 kts | 247° |
| 2026-04-28 18:06 | 41.99799 | 13.06017 | 37050 ft | 423 kts | 247° |
| 2026-04-28 18:06 | 41.97262 | 12.98933 | 37052 ft | 423 kts | 247° |
| 2026-04-28 18:07 | 41.94701 | 12.91802 | 37055 ft | 423 kts | 246° |
| 2026-04-28 18:07 | 41.92130 | 12.84673 | 37059 ft | 423 kts | 246° |
| 2026-04-28 18:08 | 41.89568 | 12.77580 | 37050 ft | 423 kts | 246° |
| 2026-04-28 18:08 | 41.87003 | 12.70488 | 37053 ft | 423 kts | 246° |
| 2026-04-28 18:09 | 41.84426 | 12.63402 | 37061 ft | 423 kts | 246° |
| 2026-04-28 18:09 | 41.81844 | 12.56305 | 37065 ft | 423 kts | 246° |
| 2026-04-28 18:10 | 41.79252 | 12.49205 | 37064 ft | 423 kts | 246° |
| 2026-04-28 18:10 | 41.76685 | 12.42179 | 37062 ft | 423 kts | 246° |
| 2026-04-28 18:11 | 41.74043 | 12.35086 | 37067 ft | 424 kts | 244° |
| 2026-04-28 18:11 | 41.71154 | 12.28240 | 37065 ft | 424 kts | 242° |
| 2026-04-28 18:12 | 41.68135 | 12.21432 | 37067 ft | 424 kts | 242° |
| 2026-04-28 18:12 | 41.65151 | 12.14612 | 37109 ft | 424 kts | 242° |
| 2026-04-28 18:13 | 41.62241 | 12.07831 | 37079 ft | 414 kts | 243° |
| 2026-04-28 18:13 | 41.60823 | 12.04537 | 37071 ft | 402 kts | 243° |
| 2026-04-28 18:13 | 41.59457 | 12.01313 | 37057 ft | 394 kts | 246° |
| 2026-04-28 18:14 | 41.58575 | 11.97930 | 37065 ft | 388 kts | 262° |
| 2026-04-28 18:14 | 41.58438 | 11.94339 | 37063 ft | 386 kts | 277° |
| 2026-04-28 18:14 | 41.59096 | 11.90870 | 37057 ft | 386 kts | 294° |
| 2026-04-28 18:14 | 41.60485 | 11.87842 | 37063 ft | 389 kts | 310° |
| 2026-04-28 18:15 | 41.62529 | 11.85454 | 37062 ft | 394 kts | 326° |
| 2026-04-28 18:15 | 41.65050 | 11.83962 | 37062 ft | 401 kts | 343° |
| 2026-04-28 18:15 | 41.67839 | 11.83548 | 37069 ft | 409 kts | 0° |
| 2026-04-28 18:15 | 41.70647 | 11.84331 | 37078 ft | 417 kts | 19° |
| 2026-04-28 18:16 | 41.73173 | 11.86315 | 37084 ft | 425 kts | 38° |
| 2026-04-28 18:16 | 41.75112 | 11.89260 | 37091 ft | 430 kts | 53° |
| 2026-04-28 18:16 | 41.78325 | 11.96085 | 37125 ft | 434 kts | 57° |
| 2026-04-28 18:17 | 41.81257 | 12.03143 | 37147 ft | 437 kts | 65° |
| 2026-04-28 18:17 | 41.82023 | 12.07091 | 37151 ft | 440 kts | 85° |
| 2026-04-28 18:17 | 41.81805 | 12.11173 | 37151 ft | 440 kts | 106° |
| 2026-04-28 18:18 | 41.80613 | 12.14914 | 37142 ft | 436 kts | 127° |
| 2026-04-28 18:18 | 41.78574 | 12.17888 | 37128 ft | 430 kts | 147° |
| 2026-04-28 18:18 | 41.75999 | 12.19744 | 37055 ft | 425 kts | 166° |
| 2026-04-28 18:18 | 41.74062 | 12.20334 | 37052 ft | 420 kts | 179° |
| 2026-04-28 18:19 | 41.70270 | 12.19826 | 37058 ft | 408 kts | 204° |
| 2026-04-28 18:19 | 41.67773 | 12.18119 | 37111 ft | 400 kts | 221° |
| 2026-04-28 18:19 | 41.65840 | 12.15563 | 37100 ft | 393 kts | 238° |
| 2026-04-28 18:19 | 41.64397 | 12.12471 | 37095 ft | 392 kts | 242° |
| 2026-04-28 18:20 | 41.61595 | 12.06167 | 37076 ft | 393 kts | 242° |
| 2026-04-28 18:20 | 41.58950 | 11.99816 | 37054 ft | 389 kts | 253° |
| 2026-04-28 18:21 | 41.58417 | 11.96284 | 37047 ft | 385 kts | 270° |
| 2026-04-28 18:21 | 41.58686 | 11.92788 | 37054 ft | 383 kts | 286° |
| 2026-04-28 18:21 | 41.59731 | 11.89511 | 37049 ft | 384 kts | 302° |
| 2026-04-28 18:21 | 41.61474 | 11.86795 | 37045 ft | 388 kts | 319° |
| 2026-04-28 18:22 | 41.63780 | 11.84884 | 37040 ft | 393 kts | 335° |
| 2026-04-28 18:22 | 41.66413 | 11.83983 | 37038 ft | 400 kts | 352° |
| 2026-04-28 18:22 | 41.69214 | 11.84210 | 37045 ft | 408 kts | 11° |
| 2026-04-28 18:22 | 41.71871 | 11.85654 | 37054 ft | 417 kts | 30° |
| 2026-04-28 18:23 | 41.74081 | 11.88229 | 37094 ft | 427 kts | 50° |
| 2026-04-28 18:23 | 41.75792 | 11.91493 | 37117 ft | 434 kts | 54° |
| 2026-04-28 18:23 | 41.78926 | 11.98467 | 37151 ft | 437 kts | 58° |
| 2026-04-28 18:24 | 41.81217 | 12.04470 | 37156 ft | 439 kts | 72° |
| 2026-04-28 18:24 | 41.81566 | 12.09914 | 37173 ft | 442 kts | 99° |
| 2026-04-28 18:24 | 41.80642 | 12.13822 | 37170 ft | 440 kts | 121° |
| 2026-04-28 18:25 | 41.78826 | 12.17013 | 37158 ft | 435 kts | 142° |
| 2026-04-28 18:25 | 41.76302 | 12.19203 | 37047 ft | 427 kts | 162° |
| 2026-04-28 18:25 | 41.73493 | 12.20119 | 37031 ft | 416 kts | 182° |
| 2026-04-28 18:26 | 41.68089 | 12.18289 | 37081 ft | 396 kts | 218° |
| 2026-04-28 18:26 | 41.66045 | 12.15874 | 37069 ft | 388 kts | 235° |
| 2026-04-28 18:26 | 41.64493 | 12.12983 | 37063 ft | 387 kts | 240° |
| 2026-04-28 18:27 | 41.61700 | 12.06809 | 37049 ft | 389 kts | 243° |
| 2026-04-28 18:27 | 41.59110 | 12.00459 | 37030 ft | 388 kts | 252° |
| 2026-04-28 18:27 | 41.58477 | 11.96987 | 37035 ft | 384 kts | 267° |
| 2026-04-28 18:28 | 41.58622 | 11.93452 | 37036 ft | 382 kts | 283° |
| 2026-04-28 18:28 | 41.59550 | 11.90135 | 37037 ft | 383 kts | 300° |
| 2026-04-28 18:28 | 41.61195 | 11.87322 | 37037 ft | 386 kts | 316° |
| 2026-04-28 18:28 | 41.63428 | 11.85307 | 37034 ft | 392 kts | 333° |
| 2026-04-28 18:29 | 41.66060 | 11.84297 | 37034 ft | 399 kts | 351° |
| 2026-04-28 18:29 | 41.68851 | 11.84440 | 37043 ft | 407 kts | 9° |
| 2026-04-28 18:29 | 41.71487 | 11.85763 | 37054 ft | 416 kts | 28° |
| 2026-04-28 18:29 | 41.73725 | 11.88256 | 37089 ft | 425 kts | 49° |
| 2026-04-28 18:30 | 41.75463 | 11.91523 | 37119 ft | 432 kts | 54° |
| 2026-04-28 18:30 | 41.78587 | 11.98428 | 37163 ft | 436 kts | 57° |
| 2026-04-28 18:31 | 41.81177 | 12.05785 | 37162 ft | 439 kts | 79° |
| 2026-04-28 18:31 | 41.81280 | 12.09871 | 37172 ft | 441 kts | 99° |
| 2026-04-28 18:31 | 41.80355 | 12.13780 | 37168 ft | 439 kts | 121° |
| 2026-04-28 18:31 | 41.78530 | 12.16952 | 37159 ft | 434 kts | 142° |
| 2026-04-28 18:32 | 41.76003 | 12.19095 | 37048 ft | 425 kts | 163° |
| 2026-04-28 18:32 | 41.74134 | 12.19803 | 37032 ft | 418 kts | 176° |
| 2026-04-28 18:32 | 41.71274 | 12.19801 | 37028 ft | 407 kts | 195° |
| 2026-04-28 18:32 | 41.67855 | 12.17989 | 37081 ft | 394 kts | 219° |
| 2026-04-28 18:33 | 41.65866 | 12.15533 | 37068 ft | 387 kts | 236° |
| 2026-04-28 18:33 | 41.63497 | 12.10473 | 37057 ft | 386 kts | 242° |
| 2026-04-28 18:34 | 41.60741 | 12.04259 | 37040 ft | 389 kts | 242° |
| 2026-04-28 18:34 | 41.58549 | 11.97770 | 37033 ft | 384 kts | 263° |
| 2026-04-28 18:34 | 41.58513 | 11.94227 | 37036 ft | 381 kts | 280° |
| 2026-04-28 18:35 | 41.59267 | 11.90876 | 37036 ft | 381 kts | 296° |
| 2026-04-28 18:35 | 41.60759 | 11.87943 | 37035 ft | 384 kts | 313° |
| 2026-04-28 18:35 | 41.62867 | 11.85729 | 37034 ft | 389 kts | 329° |
| 2026-04-28 18:35 | 41.65421 | 11.84466 | 37031 ft | 396 kts | 347° |
| 2026-04-28 18:36 | 41.68199 | 11.84341 | 37039 ft | 404 kts | 5° |
| 2026-04-28 18:36 | 41.70883 | 11.85404 | 37051 ft | 412 kts | 24° |
| 2026-04-28 18:36 | 41.73260 | 11.87662 | 37098 ft | 424 kts | 44° |
| 2026-04-28 18:37 | 41.76663 | 11.94201 | 37126 ft | 434 kts | 56° |
| 2026-04-28 18:37 | 41.79719 | 12.01220 | 37151 ft | 435 kts | 58° |
| 2026-04-28 18:37 | 41.80982 | 12.04913 | 37155 ft | 438 kts | 74° |
| 2026-04-28 18:38 | 41.81312 | 12.08963 | 37173 ft | 440 kts | 95° |
| 2026-04-28 18:38 | 41.80603 | 12.12949 | 37169 ft | 439 kts | 116° |
| 2026-04-28 18:38 | 41.78964 | 12.16293 | 37159 ft | 435 kts | 137° |
| 2026-04-28 18:38 | 41.76562 | 12.18686 | 37139 ft | 426 kts | 159° |
| 2026-04-28 18:39 | 41.73762 | 12.19826 | 37027 ft | 415 kts | 179° |
| 2026-04-28 18:39 | 41.70929 | 12.19690 | 37024 ft | 404 kts | 198° |
| 2026-04-28 18:39 | 41.68338 | 12.18387 | 37089 ft | 395 kts | 216° |
| 2026-04-28 18:40 | 41.63988 | 12.13876 | 37092 ft | 402 kts | 224° |
| 2026-04-28 18:40 | 41.59878 | 12.08731 | 37072 ft | 410 kts | 233° |
| 2026-04-28 18:41 | 41.56272 | 12.02717 | 37048 ft | 416 kts | 239° |
| 2026-04-28 18:41 | 41.53632 | 11.95844 | 37059 ft | 420 kts | 248° |
| 2026-04-28 18:42 | 41.51255 | 11.88713 | 37064 ft | 421 kts | 248° |
| 2026-04-28 18:42 | 41.48878 | 11.81563 | 37066 ft | 421 kts | 248° |
| 2026-04-28 18:43 | 41.46480 | 11.74440 | 37060 ft | 421 kts | 248° |
| 2026-04-28 18:43 | 41.44066 | 11.67325 | 37067 ft | 421 kts | 248° |
| 2026-04-28 18:44 | 41.41654 | 11.60241 | 37067 ft | 421 kts | 248° |
| 2026-04-28 18:44 | 41.38013 | 11.49550 | 37062 ft | 421 kts | 248° |
| 2026-04-28 18:45 | 41.35603 | 11.42485 | 37083 ft | 421 kts | 248° |
| 2026-04-28 18:45 | 41.33161 | 11.35367 | 37083 ft | 421 kts | 248° |
| 2026-04-28 18:46 | 41.30743 | 11.28321 | 36752 ft | 424 kts | 248° |
| 2026-04-28 18:46 | 41.29596 | 11.24678 | 36099 ft | 424 kts | 252° |
| 2026-04-28 18:46 | 41.28630 | 11.20955 | 35471 ft | 426 kts | 253° |
| 2026-04-28 18:47 | 41.27702 | 11.17230 | 34867 ft | 430 kts | 253° |
| 2026-04-28 18:47 | 41.26780 | 11.13440 | 34263 ft | 430 kts | 254° |
| 2026-04-28 18:47 | 41.25855 | 11.09617 | 33608 ft | 436 kts | 254° |
| 2026-04-28 18:47 | 41.24930 | 11.05809 | 32939 ft | 436 kts | 253° |
| 2026-04-28 18:48 | 41.23989 | 11.01975 | 32271 ft | 435 kts | 253° |
| 2026-04-28 18:48 | 41.23035 | 10.98137 | 31626 ft | 433 kts | 253° |
| 2026-04-28 18:48 | 41.22093 | 10.94391 | 31009 ft | 432 kts | 253° |
| 2026-04-28 18:48 | 41.21134 | 10.90588 | 30393 ft | 430 kts | 253° |
| 2026-04-28 18:49 | 41.20188 | 10.86821 | 29729 ft | 429 kts | 252° |
| 2026-04-28 18:49 | 41.19559 | 10.84320 | 29262 ft | 428 kts | 252° |
| 2026-04-28 18:49 | 41.18312 | 10.79365 | 28357 ft | 425 kts | 252° |
| 2026-04-28 18:49 | 41.17380 | 10.75648 | 27833 ft | 420 kts | 252° |
| 2026-04-28 18:50 | 41.16465 | 10.72009 | 27331 ft | 414 kts | 252° |
| 2026-04-28 18:50 | 41.15556 | 10.68405 | 26725 ft | 413 kts | 252° |
| 2026-04-28 18:50 | 41.14653 | 10.64836 | 26230 ft | 404 kts | 252° |
| 2026-04-28 18:50 | 41.13763 | 10.61321 | 25590 ft | 398 kts | 252° |
| 2026-04-28 18:51 | 41.12880 | 10.57843 | 24810 ft | 394 kts | 252° |
| 2026-04-28 18:51 | 41.12011 | 10.54430 | 24179 ft | 393 kts | 252° |
| 2026-04-28 18:51 | 41.11140 | 10.51009 | 23586 ft | 390 kts | 252° |
| 2026-04-28 18:51 | 41.10274 | 10.47611 | 22939 ft | 386 kts | 252° |
| 2026-04-28 18:52 | 41.09422 | 10.44262 | 22362 ft | 385 kts | 252° |
| 2026-04-28 18:52 | 41.08563 | 10.40895 | 21789 ft | 384 kts | 252° |
| 2026-04-28 18:52 | 41.07712 | 10.37563 | 21305 ft | 377 kts | 252° |
| 2026-04-28 18:52 | 41.06874 | 10.34286 | 20683 ft | 373 kts | 251° |
| 2026-04-28 18:53 | 41.06052 | 10.31070 | 20164 ft | 375 kts | 251° |
| 2026-04-28 18:53 | 41.05212 | 10.27788 | 19672 ft | 369 kts | 251° |
| 2026-04-28 18:53 | 41.04390 | 10.24583 | 19140 ft | 368 kts | 251° |
| 2026-04-28 18:53 | 41.03562 | 10.21365 | 18643 ft | 369 kts | 251° |
| 2026-04-28 18:54 | 41.02730 | 10.18141 | 18116 ft | 368 kts | 250° |
| 2026-04-28 18:54 | 41.01912 | 10.14983 | 17613 ft | 364 kts | 250° |
| 2026-04-28 18:54 | 41.01092 | 10.11818 | 17109 ft | 360 kts | 250° |
| 2026-04-28 18:54 | 41.00280 | 10.08684 | 16613 ft | 358 kts | 250° |
| 2026-04-28 18:55 | 40.99480 | 10.05589 | 16105 ft | 357 kts | 250° |
| 2026-04-28 18:55 | 40.98946 | 10.03531 | 15759 ft | 355 kts | 250° |
| 2026-04-28 18:55 | 40.97870 | 9.99401 | 15060 ft | 352 kts | 250° |
| 2026-04-28 18:55 | 40.97081 | 9.96365 | 14524 ft | 351 kts | 250° |
| 2026-04-28 18:56 | 40.96290 | 9.93318 | 14171 ft | 341 kts | 250° |
| 2026-04-28 18:56 | 40.95495 | 9.90448 | 14046 ft | 322 kts | 245° |
| 2026-04-28 18:56 | 40.94449 | 9.87975 | 13925 ft | 302 kts | 235° |
| 2026-04-28 18:56 | 40.93282 | 9.85749 | 13802 ft | 285 kts | 235° |
| 2026-04-28 18:57 | 40.92173 | 9.83617 | 13533 ft | 276 kts | 236° |
| 2026-04-28 18:57 | 40.91090 | 9.81528 | 13261 ft | 273 kts | 235° |
| 2026-04-28 18:57 | 40.90031 | 9.79485 | 12988 ft | 271 kts | 235° |
| 2026-04-28 18:57 | 40.88960 | 9.77424 | 12738 ft | 268 kts | 235° |
| 2026-04-28 18:58 | 40.87904 | 9.75394 | 12469 ft | 265 kts | 235° |
| 2026-04-28 18:58 | 40.86878 | 9.73420 | 12139 ft | 262 kts | 235° |
| 2026-04-28 18:58 | 40.85847 | 9.71441 | 11752 ft | 262 kts | 235° |
| 2026-04-28 18:58 | 40.84816 | 9.69468 | 11405 ft | 260 kts | 235° |
| 2026-04-28 18:59 | 40.83778 | 9.67487 | 11015 ft | 262 kts | 235° |
| 2026-04-28 18:59 | 40.82760 | 9.65542 | 10796 ft | 258 kts | 235° |
| 2026-04-28 18:59 | 40.81743 | 9.63594 | 10519 ft | 257 kts | 235° |
| 2026-04-28 18:59 | 40.80739 | 9.61673 | 10316 ft | 253 kts | 235° |
| 2026-04-28 19:00 | 40.79741 | 9.59769 | 10029 ft | 252 kts | 235° |
| 2026-04-28 19:00 | 40.78741 | 9.57864 | 9744 ft | 251 kts | 235° |
| 2026-04-28 19:00 | 40.77757 | 9.55988 | 9435 ft | 251 kts | 235° |
| 2026-04-28 19:00 | 40.76760 | 9.54074 | 9103 ft | 252 kts | 235° |
| 2026-04-28 19:01 | 40.75769 | 9.52177 | 8852 ft | 249 kts | 235° |
| 2026-04-28 19:01 | 40.74795 | 9.50313 | 8580 ft | 248 kts | 235° |
| 2026-04-28 19:01 | 40.73817 | 9.48448 | 8321 ft | 244 kts | 235° |
| 2026-04-28 19:01 | 40.72844 | 9.46596 | 8071 ft | 247 kts | 236° |
| 2026-04-28 19:02 | 40.71868 | 9.44737 | 7827 ft | 247 kts | 235° |
| 2026-04-28 19:02 | 40.70898 | 9.42893 | 7583 ft | 247 kts | 235° |
| 2026-04-28 19:02 | 40.69919 | 9.41033 | 7350 ft | 245 kts | 235° |
| 2026-04-28 19:02 | 40.68958 | 9.39211 | 7182 ft | 240 kts | 235° |
| 2026-04-28 19:03 | 40.68026 | 9.37442 | 7001 ft | 235 kts | 235° |
| 2026-04-28 19:03 | 40.67090 | 9.35673 | 6832 ft | 234 kts | 235° |
| 2026-04-28 19:03 | 40.66305 | 9.33815 | 6660 ft | 234 kts | 255° |
| 2026-04-28 19:03 | 40.66315 | 9.31693 | 6495 ft | 235 kts | 287° |
| 2026-04-28 19:04 | 40.67213 | 9.29897 | 6366 ft | 240 kts | 319° |
| 2026-04-28 19:04 | 40.68593 | 9.28611 | 6225 ft | 243 kts | 323° |
| 2026-04-28 19:04 | 40.69971 | 9.27357 | 6041 ft | 242 kts | 323° |
| 2026-04-28 19:04 | 40.71381 | 9.26146 | 5724 ft | 245 kts | 332° |
| 2026-04-28 19:05 | 40.73023 | 9.25525 | 5483 ft | 245 kts | 353° |
| 2026-04-28 19:05 | 40.74670 | 9.25678 | 5311 ft | 237 kts | 13° |
| 2026-04-28 19:05 | 40.76164 | 9.26524 | 5062 ft | 231 kts | 34° |
| 2026-04-28 19:05 | 40.77337 | 9.27939 | 4759 ft | 227 kts | 54° |
| 2026-04-28 19:06 | 40.78235 | 9.29628 | 4445 ft | 223 kts | 56° |
| 2026-04-28 19:06 | 40.78819 | 9.30737 | 4213 ft | 219 kts | 56° |
| 2026-04-28 19:06 | 40.79960 | 9.32902 | 3757 ft | 213 kts | 56° |
| 2026-04-28 19:06 | 40.80796 | 9.34489 | 3433 ft | 206 kts | 56° |
| 2026-04-28 19:07 | 40.81597 | 9.36011 | 3127 ft | 200 kts | 56° |
| 2026-04-28 19:07 | 40.82383 | 9.37504 | 2823 ft | 194 kts | 56° |
| 2026-04-28 19:07 | 40.83125 | 9.38914 | 2526 ft | 183 kts | 56° |
| 2026-04-28 19:07 | 40.83831 | 9.40257 | 2260 ft | 171 kts | 56° |
| 2026-04-28 19:08 | 40.84485 | 9.41502 | 2000 ft | 156 kts | 57° |
| 2026-04-28 19:08 | 40.85087 | 9.42646 | 1756 ft | 147 kts | 57° |
| 2026-04-28 19:08 | 40.85661 | 9.43740 | 1514 ft | 142 kts | 56° |
| 2026-04-28 19:08 | 40.86218 | 9.44802 | 1307 ft | 142 kts | 57° |
| 2026-04-28 19:09 | 40.86777 | 9.45868 | 1087 ft | 140 kts | 57° |
| 2026-04-28 19:09 | 40.87336 | 9.46927 | 890 ft | 140 kts | 57° |
| 2026-04-28 19:09 | 40.87891 | 9.47975 | 688 ft | 137 kts | 59° |
| 2026-04-28 19:09 | 40.88431 | 9.49007 | 420 ft | 135 kts | 57° |
| 2026-04-28 19:10 | 40.88956 | 9.50010 | 245 ft | 134 kts | 60° |
| 2026-04-28 19:10 | 40.89487 | 9.51033 | 41 ft | 130 kts | 60° |
| 2026-04-28 19:10 | 40.89920 | 9.51867 | 33 ft | 86 kts | 55° |
| 2026-04-28 19:10 | 40.90206 | 9.52415 | 35 ft | 69 kts | 55° |
| 2026-04-28 19:11 | 40.90373 | 9.52733 | 33 ft | 27 kts | 55° |
| 2026-04-28 19:11 | 40.90474 | 9.52908 | 33 ft | 17 kts | 28° |
| 2026-04-28 19:11 | 40.90571 | 9.52886 | 34 ft | 14 kts | 304° |
| 2026-04-28 19:11 | 40.90575 | 9.52818 | 34 ft | 0 kts | 259° |
| 2026-04-28 19:12 | 40.90574 | 9.52811 | 34 ft | 2 kts | 259° |
| 2026-04-28 19:13 | 40.90570 | 9.52781 | 34 ft | 4 kts | 259° |
| 2026-04-28 19:13 | 40.90563 | 9.52730 | 34 ft | 7 kts | 259° |
| 2026-04-28 19:13 | 40.90544 | 9.52666 | 33 ft | 8 kts | 237° |
| 2026-04-28 19:13 | 40.90507 | 9.52597 | 34 ft | 10 kts | 235° |
| 2026-04-28 19:14 | 40.90468 | 9.52522 | 34 ft | 9 kts | 235° |
| 2026-04-28 19:14 | 40.90426 | 9.52442 | 34 ft | 13 kts | 235° |
| 2026-04-28 19:14 | 40.90368 | 9.52331 | 34 ft | 17 kts | 235° |
| 2026-04-28 19:14 | 40.90298 | 9.52196 | 34 ft | 19 kts | 235° |
| 2026-04-28 19:15 | 40.90222 | 9.52052 | 34 ft | 19 kts | 235° |
| 2026-04-28 19:15 | 40.90175 | 9.51927 | 34 ft | 14 kts | 273° |
| 2026-04-28 19:15 | 40.90195 | 9.51813 | 34 ft | 10 kts | 298° |
| 2026-04-28 19:15 | 40.90218 | 9.51787 | 34 ft | 5 kts | 323° |
| 2026-04-28 19:16 | 40.90203 | 9.51726 | 34 ft | 7 kts | 234° |
| 2026-04-28 19:16 | 40.90177 | 9.51672 | 34 ft | 6 kts | 249° |
| 2026-04-28 19:16 | 40.90201 | 9.51639 | 34 ft | 4 kts | 325° |
| 2026-04-28 19:16 | 40.90217 | 9.51624 | 34 ft | 3 kts | 324° |
| 2026-04-28 19:17 | 40.90226 | 9.51616 | 34 ft | 1 kts | 324° |